sensor_id;sensor_type;location;lat;lon;timestamp;pressure;altitude;pressure_sealevel;temperature;humidity
71107;BME280;58763;47.982;11.516;2023-07-08T00:00:25;94371.81;;;20.94;43.43
71107;BME280;58763;47.982;11.516;2023-07-08T00:02:52;94371.59;;;20.87;43.38
71107;BME280;58763;47.982;11.516;2023-07-08T00:05:18;94366.22;;;20.78;43.43
71107;BME280;58763;47.982;11.516;2023-07-08T00:07:45;94369.41;;;20.68;43.64
71107;BME280;58763;47.982;11.516;2023-07-08T00:10:18;94373.56;;;20.62;43.50
71107;BME280;58763;47.982;11.516;2023-07-08T00:12:45;94367.94;;;20.58;43.80
71107;BME280;58763;47.982;11.516;2023-07-08T00:15:11;94364.72;;;20.56;43.97
71107;BME280;58763;47.982;11.516;2023-07-08T00:17:36;94361.66;;;20.58;43.50
71107;BME280;58763;47.982;11.516;2023-07-08T00:20:20;94359.38;;;20.60;43.67
71107;BME280;58763;47.982;11.516;2023-07-08T00:22:47;94357.97;;;20.66;43.17
71107;BME280;58763;47.982;11.516;2023-07-08T00:25:16;94361.31;;;20.72;44.18
71107;BME280;58763;47.982;11.516;2023-07-08T00:27:41;94360.94;;;20.61;44.25
71107;BME280;58763;47.982;11.516;2023-07-08T00:30:18;94359.22;;;20.56;43.72
71107;BME280;58763;47.982;11.516;2023-07-08T00:32:44;94358.91;;;20.46;43.84
71107;BME280;58763;47.982;11.516;2023-07-08T00:35:10;94352.94;;;20.44;44.02
71107;BME280;58763;47.982;11.516;2023-07-08T00:37:35;94358.91;;;20.46;44.20
71107;BME280;58763;47.982;11.516;2023-07-08T00:40:01;94356.72;;;20.51;44.40
71107;BME280;58763;47.982;11.516;2023-07-08T00:42:29;94357.06;;;20.50;44.47
71107;BME280;58763;47.982;11.516;2023-07-08T00:44:55;94355.69;;;20.44;45.01
71107;BME280;58763;47.982;11.516;2023-07-08T00:47:22;94358.78;;;20.42;45.31
71107;BME280;58763;47.982;11.516;2023-07-08T00:54:54;94356.28;;;20.37;47.14
71107;BME280;58763;47.982;11.516;2023-07-08T00:57:21;94347.09;;;20.33;46.96
71107;BME280;58763;47.982;11.516;2023-07-08T00:59:59;94352.94;;;20.32;46.46
71107;BME280;58763;47.982;11.516;2023-07-08T01:02:28;94355.22;;;20.30;46.86
71107;BME280;58763;47.982;11.516;2023-07-08T01:05:16;94358.31;;;20.28;46.42
71107;BME280;58763;47.982;11.516;2023-07-08T01:07:44;94354.78;;;20.28;46.38
71107;BME280;58763;47.982;11.516;2023-07-08T01:10:15;94356.13;;;20.22;46.59
71107;BME280;58763;47.982;11.516;2023-07-08T01:12:49;94346.81;;;20.14;46.76
71107;BME280;58763;47.982;11.516;2023-07-08T01:15:16;94349.91;;;20.13;47.13
71107;BME280;58763;47.982;11.516;2023-07-08T01:17:43;94348.53;;;20.19;46.87
71107;BME280;58763;47.982;11.516;2023-07-08T01:20:10;94345.47;;;20.20;46.69
71107;BME280;58763;47.982;11.516;2023-07-08T01:22:38;94350.16;;;20.20;46.36
71107;BME280;58763;47.982;11.516;2023-07-08T01:25:06;94354.03;;;20.19;46.33
71107;BME280;58763;47.982;11.516;2023-07-08T01:27:35;94352.94;;;20.32;48.04
71107;BME280;58763;47.982;11.516;2023-07-08T01:30:03;94361.31;;;20.02;48.62
71107;BME280;58763;47.982;11.516;2023-07-08T01:32:31;94369.41;;;19.87;48.28
71107;BME280;58763;47.982;11.516;2023-07-08T01:35:00;94351.47;;;19.89;47.96
71107;BME280;58763;47.982;11.516;2023-07-08T01:37:29;94350.19;;;19.87;47.68
71107;BME280;58763;47.982;11.516;2023-07-08T01:39:56;94349.84;;;19.76;48.57
71107;BME280;58763;47.982;11.516;2023-07-08T01:42:22;94357.88;;;19.61;49.37
71107;BME280;58763;47.982;11.516;2023-07-08T01:44:49;94352.69;;;19.47;48.96
71107;BME280;58763;47.982;11.516;2023-07-08T01:47:17;94342.06;;;19.46;48.28
71107;BME280;58763;47.982;11.516;2023-07-08T01:49:45;94341.97;;;19.54;47.93
71107;BME280;58763;47.982;11.516;2023-07-08T01:52:12;94344.06;;;19.57;48.32
71107;BME280;58763;47.982;11.516;2023-07-08T01:54:38;94342.22;;;19.61;48.38
71107;BME280;58763;47.982;11.516;2023-07-08T01:57:03;94339.28;;;19.66;48.28
71107;BME280;58763;47.982;11.516;2023-07-08T01:59:29;94339.63;;;19.77;48.88
71107;BME280;58763;47.982;11.516;2023-07-08T02:01:55;94344.66;;;19.75;48.89
71107;BME280;58763;47.982;11.516;2023-07-08T02:04:25;94341.34;;;19.69;49.46
71107;BME280;58763;47.982;11.516;2023-07-08T02:06:55;94330.38;;;19.69;49.49
71107;BME280;58763;47.982;11.516;2023-07-08T02:09:21;94335.38;;;19.55;49.81
71107;BME280;58763;47.982;11.516;2023-07-08T02:11:46;94331.22;;;19.49;49.33
71107;BME280;58763;47.982;11.516;2023-07-08T02:14:12;94338.16;;;19.47;49.55
71107;BME280;58763;47.982;11.516;2023-07-08T02:16:37;94329.63;;;19.48;49.05
71107;BME280;58763;47.982;11.516;2023-07-08T02:19:02;94328.69;;;19.44;48.93
71107;BME280;58763;47.982;11.516;2023-07-08T02:21:28;94334.88;;;19.32;49.36
71107;BME280;58763;47.982;11.516;2023-07-08T02:23:56;94332.94;;;19.33;49.51
71107;BME280;58763;47.982;11.516;2023-07-08T02:26:22;94329.09;;;19.34;49.77
71107;BME280;58763;47.982;11.516;2023-07-08T02:28:48;94327.63;;;19.37;49.59
71107;BME280;58763;47.982;11.516;2023-07-08T02:31:13;94329.88;;;19.35;49.62
71107;BME280;58763;47.982;11.516;2023-07-08T02:33:38;94327.00;;;19.31;49.63
71107;BME280;58763;47.982;11.516;2023-07-08T02:36:04;94326.34;;;19.34;50.01
71107;BME280;58763;47.982;11.516;2023-07-08T02:38:30;94321.72;;;19.26;50.27
71107;BME280;58763;47.982;11.516;2023-07-08T02:40:55;94323.06;;;19.20;50.35
71107;BME280;58763;47.982;11.516;2023-07-08T02:43:21;94328.41;;;19.16;50.45
71107;BME280;58763;47.982;11.516;2023-07-08T02:45:49;94328.59;;;19.11;50.86
71107;BME280;58763;47.982;11.516;2023-07-08T02:48:14;94334.34;;;19.18;51.08
71107;BME280;58763;47.982;11.516;2023-07-08T02:50:40;94342.47;;;19.15;51.33
71107;BME280;58763;47.982;11.516;2023-07-08T02:53:05;94338.09;;;19.14;51.66
71107;BME280;58763;47.982;11.516;2023-07-08T02:55:31;94348.06;;;18.98;51.85
71107;BME280;58763;47.982;11.516;2023-07-08T02:57:57;94339.56;;;18.91;51.83
71107;BME280;58763;47.982;11.516;2023-07-08T03:00:22;94338.91;;;18.94;52.33
71107;BME280;58763;47.982;11.516;2023-07-08T03:02:47;94343.28;;;18.95;52.28
71107;BME280;58763;47.982;11.516;2023-07-08T03:05:13;94344.47;;;18.85;52.61
71107;BME280;58763;47.982;11.516;2023-07-08T03:07:38;94343.44;;;18.69;52.87
71107;BME280;58763;47.982;11.516;2023-07-08T03:10:04;94341.63;;;18.52;52.72
71107;BME280;58763;47.982;11.516;2023-07-08T03:12:29;94339.06;;;18.47;52.57
71107;BME280;58763;47.982;11.516;2023-07-08T03:14:55;94336.47;;;18.42;52.36
71107;BME280;58763;47.982;11.516;2023-07-08T03:17:20;94332.63;;;18.43;51.89
71107;BME280;58763;47.982;11.516;2023-07-08T03:19:45;94337.28;;;18.43;51.84
71107;BME280;58763;47.982;11.516;2023-07-08T03:22:11;94340.19;;;18.46;51.78
71107;BME280;58763;47.982;11.516;2023-07-08T03:24:36;94341.75;;;18.56;52.39
71107;BME280;58763;47.982;11.516;2023-07-08T03:27:02;94342.22;;;18.58;52.84
71107;BME280;58763;47.982;11.516;2023-07-08T03:29:30;94335.00;;;18.53;52.93
71107;BME280;58763;47.982;11.516;2023-07-08T03:31:56;94344.06;;;18.45;52.48
71107;BME280;58763;47.982;11.516;2023-07-08T03:34:21;94344.69;;;18.42;52.50
71107;BME280;58763;47.982;11.516;2023-07-08T03:36:50;94332.44;;;18.48;52.00
71107;BME280;58763;47.982;11.516;2023-07-08T03:39:19;94339.06;;;18.47;52.16
71107;BME280;58763;47.982;11.516;2023-07-08T03:41:45;94333.94;;;18.46;52.01
71107;BME280;58763;47.982;11.516;2023-07-08T03:44:10;94337.44;;;18.46;51.56
71107;BME280;58763;47.982;11.516;2023-07-08T03:46:36;94333.59;;;18.47;51.22
71107;BME280;58763;47.982;11.516;2023-07-08T03:49:02;94337.91;;;18.48;53.02
71107;BME280;58763;47.982;11.516;2023-07-08T03:51:30;94343.34;;;18.57;53.72
71107;BME280;58763;47.982;11.516;2023-07-08T03:53:57;94342.66;;;18.31;53.60
71107;BME280;58763;47.982;11.516;2023-07-08T03:56:23;94349.34;;;18.13;53.48
71107;BME280;58763;47.982;11.516;2023-07-08T03:58:49;94342.91;;;18.09;53.47
71107;BME280;58763;47.982;11.516;2023-07-08T04:01:21;94349.34;;;18.13;53.57
71107;BME280;58763;47.982;11.516;2023-07-08T04:03:50;94339.22;;;18.13;53.62
71107;BME280;58763;47.982;11.516;2023-07-08T04:06:17;94330.47;;;18.20;53.03
71107;BME280;58763;47.982;11.516;2023-07-08T04:08:43;94340.56;;;18.28;53.23
71107;BME280;58763;47.982;11.516;2023-07-08T04:11:14;94337.84;;;18.28;53.42
71107;BME280;58763;47.982;11.516;2023-07-08T04:13:40;94331.38;;;18.32;53.59
71107;BME280;58763;47.982;11.516;2023-07-08T04:16:06;94328.44;;;18.46;54.30
71107;BME280;58763;47.982;11.516;2023-07-08T04:18:32;94337.41;;;18.55;54.82
71107;BME280;58763;47.982;11.516;2023-07-08T04:20:58;94337.53;;;18.58;54.48
71107;BME280;58763;47.982;11.516;2023-07-08T04:23:24;94348.41;;;18.46;55.51
71107;BME280;58763;47.982;11.516;2023-07-08T04:25:52;94342.59;;;18.39;56.54
71107;BME280;58763;47.982;11.516;2023-07-08T04:28:19;94349.69;;;18.40;56.02
71107;BME280;58763;47.982;11.516;2023-07-08T04:30:44;94354.38;;;18.40;56.35
71107;BME280;58763;47.982;11.516;2023-07-08T04:33:12;94359.66;;;18.45;56.75
71107;BME280;58763;47.982;11.516;2023-07-08T04:35:39;94365.13;;;18.53;56.07
71107;BME280;58763;47.982;11.516;2023-07-08T04:38:06;94360.31;;;18.42;56.32
71107;BME280;58763;47.982;11.516;2023-07-08T04:40:35;94366.13;;;18.40;56.59
71107;BME280;58763;47.982;11.516;2023-07-08T04:43:08;94373.19;;;18.41;57.34
71107;BME280;58763;47.982;11.516;2023-07-08T04:45:36;94381.88;;;18.52;57.27
71107;BME280;58763;47.982;11.516;2023-07-08T04:48:03;94391.97;;;18.60;58.32
71107;BME280;58763;47.982;11.516;2023-07-08T04:50:42;94392.59;;;18.66;58.13
71107;BME280;58763;47.982;11.516;2023-07-08T04:53:08;94388.28;;;18.65;58.27
71107;BME280;58763;47.982;11.516;2023-07-08T04:55:35;94385.03;;;18.62;58.57
71107;BME280;58763;47.982;11.516;2023-07-08T04:58:01;94391.47;;;18.67;58.16
71107;BME280;58763;47.982;11.516;2023-07-08T05:00:27;94392.53;;;18.74;57.11
71107;BME280;58763;47.982;11.516;2023-07-08T05:02:52;94393.22;;;18.71;56.84
71107;BME280;58763;47.982;11.516;2023-07-08T05:05:19;94394.50;;;18.74;56.97
71107;BME280;58763;47.982;11.516;2023-07-08T05:07:45;94391.06;;;18.77;56.94
71107;BME280;58763;47.982;11.516;2023-07-08T05:10:10;94381.56;;;18.83;56.68
71107;BME280;58763;47.982;11.516;2023-07-08T05:12:35;94393.63;;;18.82;57.13
71107;BME280;58763;47.982;11.516;2023-07-08T05:15:02;94400.03;;;18.86;57.62
71107;BME280;58763;47.982;11.516;2023-07-08T05:17:28;94403.50;;;18.74;57.59
71107;BME280;58763;47.982;11.516;2023-07-08T05:19:53;94401.03;;;18.81;58.65
71107;BME280;58763;47.982;11.516;2023-07-08T05:22:19;94399.53;;;18.92;58.54
71107;BME280;58763;47.982;11.516;2023-07-08T05:24:50;94394.72;;;18.89;58.29
71107;BME280;58763;47.982;11.516;2023-07-08T05:27:18;94400.28;;;19.01;56.77
71107;BME280;58763;47.982;11.516;2023-07-08T05:29:46;94398.47;;;19.05;55.98
71107;BME280;58763;47.982;11.516;2023-07-08T05:32:11;94407.19;;;19.28;56.40
71107;BME280;58763;47.982;11.516;2023-07-08T05:34:37;94406.16;;;19.41;57.13
71107;BME280;58763;47.982;11.516;2023-07-08T05:37:02;94405.25;;;19.49;58.07
71107;BME280;58763;47.982;11.516;2023-07-08T05:39:30;94424.53;;;19.61;58.71
71107;BME280;58763;47.982;11.516;2023-07-08T05:41:56;94427.41;;;19.65;58.52
71107;BME280;58763;47.982;11.516;2023-07-08T05:44:22;94425.59;;;19.69;58.36
71107;BME280;58763;47.982;11.516;2023-07-08T05:46:48;94419.75;;;19.70;57.51
71107;BME280;58763;47.982;11.516;2023-07-08T05:49:14;94419.56;;;19.75;56.84
71107;BME280;58763;47.982;11.516;2023-07-08T05:51:39;94424.97;;;19.84;55.62
71107;BME280;58763;47.982;11.516;2023-07-08T05:54:05;94426.31;;;19.78;56.51
71107;BME280;58763;47.982;11.516;2023-07-08T05:56:30;94429.41;;;19.76;56.31
71107;BME280;58763;47.982;11.516;2023-07-08T05:58:56;94429.13;;;19.90;56.88
71107;BME280;58763;47.982;11.516;2023-07-08T06:01:21;94424.44;;;19.90;56.81
71107;BME280;58763;47.982;11.516;2023-07-08T06:03:47;94429.94;;;20.02;56.86
71107;BME280;58763;47.982;11.516;2023-07-08T06:06:15;94429.06;;;20.11;56.82
71107;BME280;58763;47.982;11.516;2023-07-08T06:08:41;94423.28;;;20.24;56.79
71107;BME280;58763;47.982;11.516;2023-07-08T06:11:07;94420.53;;;20.24;57.46
71107;BME280;58763;47.982;11.516;2023-07-08T06:13:32;94424.56;;;20.27;57.03
71107;BME280;58763;47.982;11.516;2023-07-08T06:15:57;94416.31;;;20.27;56.79
71107;BME280;58763;47.982;11.516;2023-07-08T06:18:23;94410.25;;;20.33;58.14
71107;BME280;58763;47.982;11.516;2023-07-08T06:20:53;94414.16;;;20.32;59.10
71107;BME280;58763;47.982;11.516;2023-07-08T06:23:19;94417.00;;;20.24;59.54
71107;BME280;58763;47.982;11.516;2023-07-08T06:25:44;94421.81;;;20.27;59.27
71107;BME280;58763;47.982;11.516;2023-07-08T06:28:09;94415.78;;;20.13;59.62
71107;BME280;58763;47.982;11.516;2023-07-08T06:30:35;94422.91;;;20.14;60.17
71107;BME280;58763;47.982;11.516;2023-07-08T06:33:00;94423.28;;;20.24;59.88
71107;BME280;58763;47.982;11.516;2023-07-08T06:35:25;94423.44;;;20.28;59.69
71107;BME280;58763;47.982;11.516;2023-07-08T06:37:51;94422.63;;;20.27;60.00
71107;BME280;58763;47.982;11.516;2023-07-08T06:40:17;94423.44;;;20.28;60.39
71107;BME280;58763;47.982;11.516;2023-07-08T06:42:44;94420.69;;;20.40;59.67
71107;BME280;58763;47.982;11.516;2023-07-08T06:45:10;94422.88;;;20.34;58.91
71107;BME280;58763;47.982;11.516;2023-07-08T06:47:35;94431.00;;;20.43;58.54
71107;BME280;58763;47.982;11.516;2023-07-08T06:50:01;94431.03;;;20.55;58.53
71107;BME280;58763;47.982;11.516;2023-07-08T06:52:27;94431.81;;;20.43;58.28
71107;BME280;58763;47.982;11.516;2023-07-08T06:54:59;94434.22;;;20.57;57.77
71107;BME280;58763;47.982;11.516;2023-07-08T06:57:25;94432.75;;;20.72;57.88
71107;BME280;58763;47.982;11.516;2023-07-08T06:59:50;94423.25;;;20.69;58.29
71107;BME280;58763;47.982;11.516;2023-07-08T07:02:15;94411.56;;;20.72;58.19
71107;BME280;58763;47.982;11.516;2023-07-08T07:04:42;94419.13;;;20.87;58.03
71107;BME280;58763;47.982;11.516;2023-07-08T07:07:07;94418.00;;;21.00;57.78
71107;BME280;58763;47.982;11.516;2023-07-08T07:09:33;94414.69;;;21.19;57.21
71107;BME280;58763;47.982;11.516;2023-07-08T07:11:58;94410.16;;;21.26;55.76
71107;BME280;58763;47.982;11.516;2023-07-08T07:14:24;94422.44;;;21.29;55.36
71107;BME280;58763;47.982;11.516;2023-07-08T07:16:49;94414.41;;;21.36;55.20
71107;BME280;58763;47.982;11.516;2023-07-08T07:19:14;94417.94;;;21.49;55.07
71107;BME280;58763;47.982;11.516;2023-07-08T07:21:40;94423.84;;;21.63;53.76
71107;BME280;58763;47.982;11.516;2023-07-08T07:24:05;94426.25;;;21.64;53.09
71107;BME280;58763;47.982;11.516;2023-07-08T07:26:32;94425.41;;;21.76;54.63
71107;BME280;58763;47.982;11.516;2023-07-08T07:28:58;94444.88;;;21.83;53.43
71107;BME280;58763;47.982;11.516;2023-07-08T07:31:24;94442.97;;;21.71;54.16
71107;BME280;58763;47.982;11.516;2023-07-08T07:33:49;94440.28;;;21.87;54.39
71107;BME280;58763;47.982;11.516;2023-07-08T07:36:15;94433.59;;;22.00;53.05
71107;BME280;58763;47.982;11.516;2023-07-08T07:38:40;94436.59;;;21.95;51.86
71107;BME280;58763;47.982;11.516;2023-07-08T07:41:05;94439.31;;;22.07;51.41
71107;BME280;58763;47.982;11.516;2023-07-08T07:43:31;94447.13;;;22.05;51.57
71107;BME280;58763;47.982;11.516;2023-07-08T07:45:57;94454.09;;;22.15;51.78
71107;BME280;58763;47.982;11.516;2023-07-08T07:48:22;94457.13;;;22.25;51.97
71107;BME280;58763;47.982;11.516;2023-07-08T07:50:50;94467.38;;;22.13;50.97
71107;BME280;58763;47.982;11.516;2023-07-08T07:53:19;94463.38;;;22.10;51.11
71107;BME280;58763;47.982;11.516;2023-07-08T07:55:44;94470.78;;;21.94;51.76
71107;BME280;58763;47.982;11.516;2023-07-08T07:58:10;94477.25;;;22.14;52.67
71107;BME280;58763;47.982;11.516;2023-07-08T08:00:38;94480.59;;;22.19;51.86
71107;BME280;58763;47.982;11.516;2023-07-08T08:03:04;94478.03;;;22.26;51.86
71107;BME280;58763;47.982;11.516;2023-07-08T08:05:29;94472.97;;;22.28;52.13
71107;BME280;58763;47.982;11.516;2023-07-08T08:07:55;94470.72;;;22.34;51.26
71107;BME280;58763;47.982;11.516;2023-07-08T08:10:20;94480.44;;;22.43;50.52
71107;BME280;58763;47.982;11.516;2023-07-08T08:12:47;94482.56;;;22.62;50.47
71107;BME280;58763;47.982;11.516;2023-07-08T08:15:16;94490.88;;;22.78;49.97
71107;BME280;58763;47.982;11.516;2023-07-08T08:17:41;94492.28;;;23.03;50.26
71107;BME280;58763;47.982;11.516;2023-07-08T08:20:12;94483.38;;;23.09;49.21
71107;BME280;58763;47.982;11.516;2023-07-08T08:22:37;94488.16;;;23.28;48.94
71107;BME280;58763;47.982;11.516;2023-07-08T08:25:03;94490.75;;;23.52;48.28
71107;BME280;58763;47.982;11.516;2023-07-08T08:27:28;94485.03;;;23.61;46.79
71107;BME280;58763;47.982;11.516;2023-07-08T08:29:53;94490.59;;;23.80;47.85
71107;BME280;58763;47.982;11.516;2023-07-08T08:32:19;94494.22;;;23.84;45.68
71107;BME280;58763;47.982;11.516;2023-07-08T08:34:44;94501.69;;;23.99;46.14
71107;BME280;58763;47.982;11.516;2023-07-08T08:37:10;94501.13;;;24.09;46.09
71107;BME280;58763;47.982;11.516;2023-07-08T08:39:35;94504.19;;;24.23;45.55
71107;BME280;58763;47.982;11.516;2023-07-08T08:42:01;94501.66;;;24.34;45.64
71107;BME280;58763;47.982;11.516;2023-07-08T08:44:31;94496.88;;;24.53;44.86
71107;BME280;58763;47.982;11.516;2023-07-08T08:47:35;94493.72;;;24.74;43.72
71107;BME280;58763;47.982;11.516;2023-07-08T08:52:50;94504.00;;;25.15;42.48
71107;BME280;58763;47.982;11.516;2023-07-08T08:55:16;94509.53;;;25.15;41.67
71107;BME280;58763;47.982;11.516;2023-07-08T08:57:47;94502.63;;;25.28;42.13
71107;BME280;58763;47.982;11.516;2023-07-08T09:00:20;94503.59;;;25.39;41.95
71107;BME280;58763;47.982;11.516;2023-07-08T09:02:59;94504.50;;;25.44;41.11
71107;BME280;58763;47.982;11.516;2023-07-08T09:05:26;94511.69;;;25.48;41.64
71107;BME280;58763;47.982;11.516;2023-07-08T09:08:04;94511.41;;;25.57;40.55
71107;BME280;58763;47.982;11.516;2023-07-08T09:10:45;94527.13;;;25.75;40.40
71107;BME280;58763;47.982;11.516;2023-07-08T09:13:18;94514.22;;;25.60;39.46
71107;BME280;58763;47.982;11.516;2023-07-08T09:15:47;94527.34;;;25.63;40.65
71107;BME280;58763;47.982;11.516;2023-07-08T09:18:25;94521.56;;;25.72;39.58
71107;BME280;58763;47.982;11.516;2023-07-08T09:20:55;94516.66;;;25.88;40.04
71107;BME280;58763;47.982;11.516;2023-07-08T09:23:24;94514.81;;;25.99;40.40
71107;BME280;58763;47.982;11.516;2023-07-08T09:26:13;94519.19;;;26.00;38.01
71107;BME280;58763;47.982;11.516;2023-07-08T09:28:43;94503.97;;;26.13;39.26
71107;BME280;58763;47.982;11.516;2023-07-08T09:31:28;94506.53;;;26.29;38.87
71107;BME280;58763;47.982;11.516;2023-07-08T09:34:11;94505.34;;;26.63;39.06
71107;BME280;58763;47.982;11.516;2023-07-08T09:36:42;94515.19;;;26.87;38.32
71107;BME280;58763;47.982;11.516;2023-07-08T09:39:12;94509.09;;;27.11;37.24
71107;BME280;58763;47.982;11.516;2023-07-08T09:41:39;94518.69;;;27.20;35.81
71107;BME280;58763;47.982;11.516;2023-07-08T09:46:42;94518.63;;;27.13;36.15
71107;BME280;58763;47.982;11.516;2023-07-08T09:49:21;94514.56;;;27.04;35.55
71107;BME280;58763;47.982;11.516;2023-07-08T09:51:48;94516.25;;;27.15;35.66
71107;BME280;58763;47.982;11.516;2023-07-08T09:54:18;94524.09;;;27.43;35.98
71107;BME280;58763;47.982;11.516;2023-07-08T09:56:55;94518.25;;;27.55;35.58
71107;BME280;58763;47.982;11.516;2023-07-08T09:59:29;94524.78;;;27.77;35.29
71107;BME280;58763;47.982;11.516;2023-07-08T10:01:59;94528.47;;;27.95;33.79
71107;BME280;58763;47.982;11.516;2023-07-08T10:04:24;94519.03;;;28.10;33.94
71107;BME280;58763;47.982;11.516;2023-07-08T10:06:50;94523.88;;;28.17;33.38
71107;BME280;58763;47.982;11.516;2023-07-08T10:09:20;94522.31;;;28.23;33.78
71107;BME280;58763;47.982;11.516;2023-07-08T10:11:58;94522.41;;;28.44;33.60
71107;BME280;58763;47.982;11.516;2023-07-08T10:14:35;94522.16;;;28.73;32.46
71107;BME280;58763;47.982;11.516;2023-07-08T10:17:02;94522.44;;;28.51;32.71
71107;BME280;58763;47.982;11.516;2023-07-08T10:19:28;94523.00;;;28.78;32.54
71107;BME280;58763;47.982;11.516;2023-07-08T10:25:06;94521.63;;;28.40;32.92
71107;BME280;58763;47.982;11.516;2023-07-08T10:27:53;94532.16;;;28.82;33.32
71107;BME280;58763;47.982;11.516;2023-07-08T10:30:30;94523.06;;;29.02;33.25
71107;BME280;58763;47.982;11.516;2023-07-08T10:36:30;94524.75;;;29.56;31.01
71107;BME280;58763;47.982;11.516;2023-07-08T10:39:23;94523.16;;;29.73;30.38
71107;BME280;58763;47.982;11.516;2023-07-08T10:44:49;94518.00;;;29.96;30.35
71107;BME280;58763;47.982;11.516;2023-07-08T10:47:51;94512.38;;;30.35;30.55
71107;BME280;58763;47.982;11.516;2023-07-08T10:50:36;94516.66;;;30.60;29.69
71107;BME280;58763;47.982;11.516;2023-07-08T10:53:25;94518.97;;;30.80;29.27
71107;BME280;58763;47.982;11.516;2023-07-08T10:59:06;94518.88;;;31.04;29.96
71107;BME280;58763;47.982;11.516;2023-07-08T11:01:57;94514.72;;;31.30;29.32
71107;BME280;58763;47.982;11.516;2023-07-08T11:04:37;94525.09;;;31.33;29.09
71107;BME280;58763;47.982;11.516;2023-07-08T11:09:56;94513.81;;;31.54;28.58
71107;BME280;58763;47.982;11.516;2023-07-08T11:14:57;94515.31;;;31.69;27.51
71107;BME280;58763;47.982;11.516;2023-07-08T11:21:07;94519.69;;;32.15;27.36
71107;BME280;58763;47.982;11.516;2023-07-08T11:23:46;94516.31;;;32.34;27.36
71107;BME280;58763;47.982;11.516;2023-07-08T11:26:20;94517.69;;;32.56;26.21
71107;BME280;58763;47.982;11.516;2023-07-08T11:28:49;94516.84;;;32.59;26.87
71107;BME280;58763;47.982;11.516;2023-07-08T11:31:17;94506.66;;;31.97;26.54
71107;BME280;58763;47.982;11.516;2023-07-08T11:33:43;94513.41;;;32.03;26.76
71107;BME280;58763;47.982;11.516;2023-07-08T11:36:11;94504.69;;;31.94;27.18
71107;BME280;58763;47.982;11.516;2023-07-08T11:38:47;94509.72;;;32.14;26.61
71107;BME280;58763;47.982;11.516;2023-07-08T11:41:17;94499.97;;;32.29;26.05
71107;BME280;58763;47.982;11.516;2023-07-08T11:43:53;94507.72;;;32.14;26.81
71107;BME280;58763;47.982;11.516;2023-07-08T11:46:26;94499.66;;;32.20;27.82
71107;BME280;58763;47.982;11.516;2023-07-08T11:48:56;94495.59;;;32.28;26.71
71107;BME280;58763;47.982;11.516;2023-07-08T11:51:34;94489.41;;;32.43;26.56
71107;BME280;58763;47.982;11.516;2023-07-08T11:54:29;94490.91;;;32.55;27.28
71107;BME280;58763;47.982;11.516;2023-07-08T11:57:05;94486.50;;;32.57;27.26
71107;BME280;58763;47.982;11.516;2023-07-08T11:59:39;94476.69;;;32.35;25.76
71107;BME280;58763;47.982;11.516;2023-07-08T12:02:18;94473.88;;;32.39;26.66
71107;BME280;58763;47.982;11.516;2023-07-08T12:04:55;94469.72;;;32.17;26.83
71107;BME280;58763;47.982;11.516;2023-07-08T12:07:31;94473.81;;;32.08;27.40
71107;BME280;58763;47.982;11.516;2023-07-08T12:09:58;94474.63;;;32.05;26.46
71107;BME280;58763;47.982;11.516;2023-07-08T12:12:30;94473.91;;;32.35;26.67
71107;BME280;58763;47.982;11.516;2023-07-08T12:17:35;94482.06;;;32.60;26.65
71107;BME280;58763;47.982;11.516;2023-07-08T12:20:02;94483.81;;;32.77;25.94
71107;BME280;58763;47.982;11.516;2023-07-08T12:22:28;94482.00;;;32.94;25.40
71107;BME280;58763;47.982;11.516;2023-07-08T12:24:54;94488.31;;;33.05;26.09
71107;BME280;58763;47.982;11.516;2023-07-08T12:27:21;94478.75;;;33.02;24.94
71107;BME280;58763;47.982;11.516;2023-07-08T12:29:46;94471.16;;;32.65;25.90
71107;BME280;58763;47.982;11.516;2023-07-08T12:32:12;94486.88;;;32.90;26.38
71107;BME280;58763;47.982;11.516;2023-07-08T12:34:39;94480.53;;;32.86;25.54
71107;BME280;58763;47.982;11.516;2023-07-08T12:37:04;94484.56;;;32.51;26.05
71107;BME280;58763;47.982;11.516;2023-07-08T12:39:32;94483.50;;;32.71;25.67
71107;BME280;58763;47.982;11.516;2023-07-08T12:41:59;94483.34;;;32.86;25.61
71107;BME280;58763;47.982;11.516;2023-07-08T12:44:25;94479.03;;;32.78;24.75
71107;BME280;58763;47.982;11.516;2023-07-08T12:46:53;94470.59;;;32.81;25.55
71107;BME280;58763;47.982;11.516;2023-07-08T12:49:19;94471.22;;;32.62;25.33
71107;BME280;58763;47.982;11.516;2023-07-08T12:51:46;94469.03;;;32.43;25.65
71107;BME280;58763;47.982;11.516;2023-07-08T12:54:12;94469.25;;;32.25;26.28
71107;BME280;58763;47.982;11.516;2023-07-08T12:56:40;94476.31;;;32.37;25.92
71107;BME280;58763;47.982;11.516;2023-07-08T12:59:08;94490.56;;;32.49;26.13
71107;BME280;58763;47.982;11.516;2023-07-08T13:01:34;94484.69;;;32.74;25.72
71107;BME280;58763;47.982;11.516;2023-07-08T13:04:10;94489.16;;;32.98;25.62
71107;BME280;58763;47.982;11.516;2023-07-08T13:06:37;94489.94;;;32.99;24.75
71107;BME280;58763;47.982;11.516;2023-07-08T13:09:24;94492.44;;;33.23;24.14
71107;BME280;58763;47.982;11.516;2023-07-08T13:11:56;94498.09;;;33.20;25.38
71107;BME280;58763;47.982;11.516;2023-07-08T13:14:22;94498.34;;;33.29;25.32
71107;BME280;58763;47.982;11.516;2023-07-08T13:16:49;94495.38;;;33.13;25.46
71107;BME280;58763;47.982;11.516;2023-07-08T13:19:14;94502.41;;;32.94;25.66
71107;BME280;58763;47.982;11.516;2023-07-08T13:21:40;94496.13;;;32.53;25.94
71107;BME280;58763;47.982;11.516;2023-07-08T13:24:12;94493.47;;;32.39;26.85
71107;BME280;58763;47.982;11.516;2023-07-08T13:26:37;94488.91;;;32.15;25.54
71107;BME280;58763;47.982;11.516;2023-07-08T13:29:12;94496.38;;;31.87;26.20
71107;BME280;58763;47.982;11.516;2023-07-08T13:31:39;94495.69;;;31.73;25.72